sensor_id;sensor_type;location;lat;lon;timestamp;P1;durP1;ratioP1;P2;durP2;ratioP2
61685;SDS011;47592;45.904;8.978;2024-03-17T00:00:25;6.88;;;4.15;;
61685;SDS011;47592;45.904;8.978;2024-03-17T00:02:51;7.55;;;3.88;;
61685;SDS011;47592;45.904;8.978;2024-03-17T00:05:18;8.00;;;4.50;;
61685;SDS011;47592;45.904;8.978;2024-03-17T00:07:44;7.70;;;4.40;;
61685;SDS011;47592;45.904;8.978;2024-03-17T00:10:12;6.25;;;3.97;;
61685;SDS011;47592;45.904;8.978;2024-03-17T00:12:37;7.90;;;4.30;;
61685;SDS011;47592;45.904;8.978;2024-03-17T00:15:06;10.07;;;5.18;;
61685;SDS011;47592;45.904;8.978;2024-03-17T00:17:32;11.65;;;4.72;;
61685;SDS011;47592;45.904;8.978;2024-03-17T00:19:59;7.53;;;4.15;;
61685;SDS011;47592;45.904;8.978;2024-03-17T00:22:29;11.20;;;5.97;;
61685;SDS011;47592;45.904;8.978;2024-03-17T00:25:00;14.05;;;6.70;;
61685;SDS011;47592;45.904;8.978;2024-03-17T00:27:25;9.88;;;5.57;;
61685;SDS011;47592;45.904;8.978;2024-03-17T00:29:50;8.27;;;4.13;;
61685;SDS011;47592;45.904;8.978;2024-03-17T00:32:18;8.80;;;4.53;;
61685;SDS011;47592;45.904;8.978;2024-03-17T00:34:46;9.40;;;4.15;;
61685;SDS011;47592;45.904;8.978;2024-03-17T00:37:11;9.45;;;4.38;;
61685;SDS011;47592;45.904;8.978;2024-03-17T00:39:39;7.88;;;4.10;;
61685;SDS011;47592;45.904;8.978;2024-03-17T00:42:05;6.88;;;3.97;;
61685;SDS011;47592;45.904;8.978;2024-03-17T00:44:31;8.40;;;4.43;;
61685;SDS011;47592;45.904;8.978;2024-03-17T00:47:00;7.25;;;3.88;;
61685;SDS011;47592;45.904;8.978;2024-03-17T00:49:25;7.60;;;4.20;;
61685;SDS011;47592;45.904;8.978;2024-03-17T00:51:55;7.13;;;4.15;;
61685;SDS011;47592;45.904;8.978;2024-03-17T00:54:21;7.20;;;3.95;;
61685;SDS011;47592;45.904;8.978;2024-03-17T00:56:46;10.38;;;4.20;;
61685;SDS011;47592;45.904;8.978;2024-03-17T00:59:12;8.75;;;4.15;;
61685;SDS011;47592;45.904;8.978;2024-03-17T01:01:39;8.32;;;5.00;;
61685;SDS011;47592;45.904;8.978;2024-03-17T01:04:09;7.88;;;4.38;;
61685;SDS011;47592;45.904;8.978;2024-03-17T01:06:34;8.00;;;4.75;;
61685;SDS011;47592;45.904;8.978;2024-03-17T01:09:05;8.60;;;4.75;;
61685;SDS011;47592;45.904;8.978;2024-03-17T01:11:33;8.38;;;4.78;;
61685;SDS011;47592;45.904;8.978;2024-03-17T01:13:59;7.28;;;4.28;;
61685;SDS011;47592;45.904;8.978;2024-03-17T01:16:24;7.82;;;4.25;;
61685;SDS011;47592;45.904;8.978;2024-03-17T01:18:49;7.35;;;4.20;;
61685;SDS011;47592;45.904;8.978;2024-03-17T01:21:17;7.10;;;3.97;;
61685;SDS011;47592;45.904;8.978;2024-03-17T01:23:42;6.68;;;4.13;;
61685;SDS011;47592;45.904;8.978;2024-03-17T01:26:08;7.63;;;4.45;;
61685;SDS011;47592;45.904;8.978;2024-03-17T01:28:38;6.90;;;4.13;;
61685;SDS011;47592;45.904;8.978;2024-03-17T01:31:06;7.22;;;4.07;;
61685;SDS011;47592;45.904;8.978;2024-03-17T01:33:32;8.73;;;4.40;;
61685;SDS011;47592;45.904;8.978;2024-03-17T01:35:57;8.88;;;4.60;;
61685;SDS011;47592;45.904;8.978;2024-03-17T01:38:25;7.65;;;4.20;;
61685;SDS011;47592;45.904;8.978;2024-03-17T01:40:55;8.00;;;4.40;;
61685;SDS011;47592;45.904;8.978;2024-03-17T01:43:23;8.35;;;4.85;;
61685;SDS011;47592;45.904;8.978;2024-03-17T01:45:48;7.75;;;4.47;;
61685;SDS011;47592;45.904;8.978;2024-03-17T01:48:14;7.80;;;4.57;;
61685;SDS011;47592;45.904;8.978;2024-03-17T01:50:43;9.55;;;4.70;;
61685;SDS011;47592;45.904;8.978;2024-03-17T01:53:10;7.60;;;4.20;;
61685;SDS011;47592;45.904;8.978;2024-03-17T01:55:38;6.95;;;4.18;;
61685;SDS011;47592;45.904;8.978;2024-03-17T01:58:05;7.78;;;4.60;;
61685;SDS011;47592;45.904;8.978;2024-03-17T02:00:35;7.22;;;4.28;;
61685;SDS011;47592;45.904;8.978;2024-03-17T02:03:08;7.28;;;4.20;;
61685;SDS011;47592;45.904;8.978;2024-03-17T02:05:34;8.85;;;4.40;;
61685;SDS011;47592;45.904;8.978;2024-03-17T02:08:02;7.35;;;4.07;;
61685;SDS011;47592;45.904;8.978;2024-03-17T02:10:28;7.80;;;4.38;;
61685;SDS011;47592;45.904;8.978;2024-03-17T02:12:54;8.85;;;4.60;;
61685;SDS011;47592;45.904;8.978;2024-03-17T02:15:21;8.07;;;4.65;;
61685;SDS011;47592;45.904;8.978;2024-03-17T02:17:47;8.55;;;4.72;;
61685;SDS011;47592;45.904;8.978;2024-03-17T02:20:13;9.20;;;4.70;;
61685;SDS011;47592;45.904;8.978;2024-03-17T02:22:39;8.60;;;5.25;;
61685;SDS011;47592;45.904;8.978;2024-03-17T02:25:05;7.07;;;4.20;;
61685;SDS011;47592;45.904;8.978;2024-03-17T02:27:33;8.63;;;4.40;;
61685;SDS011;47592;45.904;8.978;2024-03-17T02:30:01;8.68;;;4.93;;
61685;SDS011;47592;45.904;8.978;2024-03-17T02:32:33;7.95;;;4.80;;
61685;SDS011;47592;45.904;8.978;2024-03-17T02:34:59;7.72;;;4.18;;
61685;SDS011;47592;45.904;8.978;2024-03-17T02:37:25;7.53;;;4.25;;
61685;SDS011;47592;45.904;8.978;2024-03-17T02:39:50;8.52;;;4.32;;
61685;SDS011;47592;45.904;8.978;2024-03-17T02:42:15;8.43;;;4.43;;
61685;SDS011;47592;45.904;8.978;2024-03-17T02:44:41;6.72;;;3.80;;
61685;SDS011;47592;45.904;8.978;2024-03-17T02:47:06;6.95;;;3.85;;
61685;SDS011;47592;45.904;8.978;2024-03-17T02:49:37;5.90;;;3.33;;
61685;SDS011;47592;45.904;8.978;2024-03-17T02:52:08;7.75;;;4.22;;
61685;SDS011;47592;45.904;8.978;2024-03-17T02:54:36;7.60;;;3.95;;
61685;SDS011;47592;45.904;8.978;2024-03-17T02:57:02;9.80;;;3.38;;
61685;SDS011;47592;45.904;8.978;2024-03-17T02:59:29;8.75;;;4.20;;
61685;SDS011;47592;45.904;8.978;2024-03-17T03:01:54;8.02;;;4.63;;
61685;SDS011;47592;45.904;8.978;2024-03-17T03:04:19;10.00;;;4.45;;
61685;SDS011;47592;45.904;8.978;2024-03-17T03:06:45;7.40;;;4.28;;
61685;SDS011;47592;45.904;8.978;2024-03-17T03:09:10;8.32;;;4.22;;
61685;SDS011;47592;45.904;8.978;2024-03-17T03:11:40;8.48;;;4.35;;
61685;SDS011;47592;45.904;8.978;2024-03-17T03:14:06;7.25;;;3.80;;
61685;SDS011;47592;45.904;8.978;2024-03-17T03:16:34;7.50;;;3.88;;
61685;SDS011;47592;45.904;8.978;2024-03-17T03:19:02;7.70;;;4.03;;
61685;SDS011;47592;45.904;8.978;2024-03-17T03:21:27;7.05;;;4.00;;
61685;SDS011;47592;45.904;8.978;2024-03-17T03:23:58;7.07;;;4.07;;
61685;SDS011;47592;45.904;8.978;2024-03-17T03:26:23;7.43;;;4.05;;
61685;SDS011;47592;45.904;8.978;2024-03-17T03:28:51;8.32;;;4.03;;
61685;SDS011;47592;45.904;8.978;2024-03-17T03:31:19;6.72;;;3.63;;
61685;SDS011;47592;45.904;8.978;2024-03-17T03:33:44;7.55;;;3.50;;
61685;SDS011;47592;45.904;8.978;2024-03-17T03:36:13;10.13;;;3.05;;
61685;SDS011;47592;45.904;8.978;2024-03-17T03:38:39;6.80;;;2.65;;
61685;SDS011;47592;45.904;8.978;2024-03-17T03:43:36;5.78;;;2.80;;
61685;SDS011;47592;45.904;8.978;2024-03-17T03:46:02;5.22;;;2.40;;
61685;SDS011;47592;45.904;8.978;2024-03-17T03:48:30;7.10;;;2.65;;
61685;SDS011;47592;45.904;8.978;2024-03-17T03:50:59;5.60;;;2.45;;
61685;SDS011;47592;45.904;8.978;2024-03-17T03:53:28;5.60;;;2.33;;
61685;SDS011;47592;45.904;8.978;2024-03-17T03:55:54;5.35;;;2.40;;
61685;SDS011;47592;45.904;8.978;2024-03-17T03:58:24;5.53;;;2.50;;
61685;SDS011;47592;45.904;8.978;2024-03-17T04:00:49;5.93;;;2.38;;
61685;SDS011;47592;45.904;8.978;2024-03-17T04:03:15;5.28;;;2.30;;
61685;SDS011;47592;45.904;8.978;2024-03-17T04:05:40;5.70;;;2.40;;
61685;SDS011;47592;45.904;8.978;2024-03-17T04:08:08;5.10;;;2.72;;
61685;SDS011;47592;45.904;8.978;2024-03-17T04:10:36;5.97;;;2.40;;
61685;SDS011;47592;45.904;8.978;2024-03-17T04:13:01;5.63;;;2.40;;
61685;SDS011;47592;45.904;8.978;2024-03-17T04:15:29;4.50;;;2.05;;
61685;SDS011;47592;45.904;8.978;2024-03-17T04:17:55;5.13;;;2.00;;
61685;SDS011;47592;45.904;8.978;2024-03-17T04:20:20;4.50;;;1.80;;
61685;SDS011;47592;45.904;8.978;2024-03-17T04:22:46;5.32;;;1.73;;
61685;SDS011;47592;45.904;8.978;2024-03-17T04:25:13;5.68;;;2.00;;
61685;SDS011;47592;45.904;8.978;2024-03-17T04:27:39;6.25;;;1.73;;
61685;SDS011;47592;45.904;8.978;2024-03-17T04:30:05;4.50;;;1.80;;
61685;SDS011;47592;45.904;8.978;2024-03-17T04:32:36;5.85;;;1.80;;
61685;SDS011;47592;45.904;8.978;2024-03-17T04:35:01;4.63;;;1.80;;
61685;SDS011;47592;45.904;8.978;2024-03-17T04:37:34;4.50;;;1.98;;
61685;SDS011;47592;45.904;8.978;2024-03-17T04:40:05;4.10;;;1.67;;
61685;SDS011;47592;45.904;8.978;2024-03-17T04:42:36;4.20;;;1.70;;
61685;SDS011;47592;45.904;8.978;2024-03-17T04:45:04;5.10;;;1.80;;
61685;SDS011;47592;45.904;8.978;2024-03-17T04:47:30;5.57;;;2.10;;
61685;SDS011;47592;45.904;8.978;2024-03-17T04:49:56;4.00;;;1.70;;
61685;SDS011;47592;45.904;8.978;2024-03-17T04:52:21;4.82;;;1.77;;
61685;SDS011;47592;45.904;8.978;2024-03-17T04:54:47;5.25;;;1.48;;
61685;SDS011;47592;45.904;8.978;2024-03-17T04:57:17;5.40;;;1.70;;
61685;SDS011;47592;45.904;8.978;2024-03-17T04:59:45;4.60;;;1.65;;
61685;SDS011;47592;45.904;8.978;2024-03-17T05:02:10;4.45;;;1.80;;
61685;SDS011;47592;45.904;8.978;2024-03-17T05:04:35;5.10;;;1.63;;
61685;SDS011;47592;45.904;8.978;2024-03-17T05:07:01;5.07;;;1.67;;
61685;SDS011;47592;45.904;8.978;2024-03-17T05:09:29;4.95;;;1.63;;
61685;SDS011;47592;45.904;8.978;2024-03-17T05:11:54;4.75;;;1.88;;
61685;SDS011;47592;45.904;8.978;2024-03-17T05:14:20;4.50;;;1.77;;
61685;SDS011;47592;45.904;8.978;2024-03-17T05:16:48;5.15;;;2.00;;
61685;SDS011;47592;45.904;8.978;2024-03-17T05:19:17;5.38;;;1.90;;
61685;SDS011;47592;45.904;8.978;2024-03-17T05:21:43;4.07;;;1.42;;
61685;SDS011;47592;45.904;8.978;2024-03-17T05:24:12;4.93;;;1.50;;
61685;SDS011;47592;45.904;8.978;2024-03-17T05:26:40;4.15;;;1.60;;
61685;SDS011;47592;45.904;8.978;2024-03-17T05:29:07;3.33;;;1.38;;
61685;SDS011;47592;45.904;8.978;2024-03-17T05:31:32;4.35;;;1.40;;
61685;SDS011;47592;45.904;8.978;2024-03-17T05:34:03;3.80;;;1.48;;
61685;SDS011;47592;45.904;8.978;2024-03-17T05:36:31;3.72;;;1.42;;
61685;SDS011;47592;45.904;8.978;2024-03-17T05:38:58;5.65;;;1.50;;
61685;SDS011;47592;45.904;8.978;2024-03-17T05:41:24;3.88;;;1.48;;
61685;SDS011;47592;45.904;8.978;2024-03-17T05:43:53;4.50;;;1.60;;
61685;SDS011;47592;45.904;8.978;2024-03-17T05:46:18;5.63;;;1.58;;
61685;SDS011;47592;45.904;8.978;2024-03-17T05:48:46;4.45;;;1.60;;
61685;SDS011;47592;45.904;8.978;2024-03-17T05:51:12;4.85;;;1.65;;
61685;SDS011;47592;45.904;8.978;2024-03-17T05:53:38;4.03;;;1.50;;
61685;SDS011;47592;45.904;8.978;2024-03-17T05:56:05;4.38;;;1.88;;
61685;SDS011;47592;45.904;8.978;2024-03-17T05:58:32;5.43;;;1.60;;
61685;SDS011;47592;45.904;8.978;2024-03-17T06:01:05;4.20;;;1.60;;
61685;SDS011;47592;45.904;8.978;2024-03-17T06:03:34;4.22;;;1.60;;
61685;SDS011;47592;45.904;8.978;2024-03-17T06:06:01;5.00;;;1.70;;
61685;SDS011;47592;45.904;8.978;2024-03-17T06:08:32;4.28;;;1.60;;
61685;SDS011;47592;45.904;8.978;2024-03-17T06:10:58;5.35;;;1.83;;
61685;SDS011;47592;45.904;8.978;2024-03-17T06:13:25;4.63;;;1.60;;
61685;SDS011;47592;45.904;8.978;2024-03-17T06:15:53;3.80;;;1.40;;
61685;SDS011;47592;45.904;8.978;2024-03-17T06:18:18;5.13;;;1.52;;
61685;SDS011;47592;45.904;8.978;2024-03-17T06:20:45;4.38;;;1.70;;
61685;SDS011;47592;45.904;8.978;2024-03-17T06:23:12;5.07;;;1.80;;
61685;SDS011;47592;45.904;8.978;2024-03-17T06:25:41;5.38;;;1.80;;
61685;SDS011;47592;45.904;8.978;2024-03-17T06:28:13;5.68;;;1.70;;
61685;SDS011;47592;45.904;8.978;2024-03-17T06:30:40;4.20;;;1.70;;
61685;SDS011;47592;45.904;8.978;2024-03-17T06:33:16;5.65;;;1.70;;
61685;SDS011;47592;45.904;8.978;2024-03-17T06:35:44;5.20;;;2.00;;
61685;SDS011;47592;45.904;8.978;2024-03-17T06:38:10;4.90;;;2.28;;
61685;SDS011;47592;45.904;8.978;2024-03-17T06:40:36;6.32;;;2.50;;
61685;SDS011;47592;45.904;8.978;2024-03-17T06:43:02;5.68;;;2.40;;
61685;SDS011;47592;45.904;8.978;2024-03-17T06:45:29;8.18;;;2.65;;
61685;SDS011;47592;45.904;8.978;2024-03-17T06:47:57;5.43;;;2.45;;
61685;SDS011;47592;45.904;8.978;2024-03-17T06:50:27;6.03;;;2.65;;
61685;SDS011;47592;45.904;8.978;2024-03-17T06:52:53;6.28;;;2.70;;
61685;SDS011;47592;45.904;8.978;2024-03-17T06:55:18;7.93;;;2.70;;
61685;SDS011;47592;45.904;8.978;2024-03-17T06:57:46;6.05;;;2.65;;
61685;SDS011;47592;45.904;8.978;2024-03-17T07:00:12;6.57;;;2.60;;
61685;SDS011;47592;45.904;8.978;2024-03-17T07:02:42;5.57;;;2.17;;
61685;SDS011;47592;45.904;8.978;2024-03-17T07:05:12;5.63;;;2.17;;
61685;SDS011;47592;45.904;8.978;2024-03-17T07:07:42;5.03;;;1.90;;
61685;SDS011;47592;45.904;8.978;2024-03-17T07:10:08;4.00;;;1.53;;
61685;SDS011;47592;45.904;8.978;2024-03-17T07:12:36;4.15;;;1.60;;
61685;SDS011;47592;45.904;8.978;2024-03-17T07:15:05;3.70;;;1.40;;
61685;SDS011;47592;45.904;8.978;2024-03-17T07:17:30;3.78;;;1.38;;
61685;SDS011;47592;45.904;8.978;2024-03-17T07:19:56;4.72;;;1.42;;
61685;SDS011;47592;45.904;8.978;2024-03-17T07:22:21;3.65;;;1.30;;
61685;SDS011;47592;45.904;8.978;2024-03-17T07:24:53;4.85;;;1.30;;
61685;SDS011;47592;45.904;8.978;2024-03-17T07:27:25;3.60;;;1.40;;
61685;SDS011;47592;45.904;8.978;2024-03-17T07:29:51;3.70;;;1.20;;
61685;SDS011;47592;45.904;8.978;2024-03-17T07:32:17;4.80;;;1.20;;
61685;SDS011;47592;45.904;8.978;2024-03-17T07:34:42;5.47;;;1.40;;
61685;SDS011;47592;45.904;8.978;2024-03-17T07:37:10;4.28;;;1.25;;
61685;SDS011;47592;45.904;8.978;2024-03-17T07:39:35;3.95;;;1.20;;
61685;SDS011;47592;45.904;8.978;2024-03-17T07:42:01;3.97;;;1.40;;
61685;SDS011;47592;45.904;8.978;2024-03-17T07:44:29;6.80;;;1.45;;
61685;SDS011;47592;45.904;8.978;2024-03-17T07:46:59;4.25;;;1.42;;
61685;SDS011;47592;45.904;8.978;2024-03-17T07:49:33;3.65;;;1.10;;
61685;SDS011;47592;45.904;8.978;2024-03-17T07:51:58;3.35;;;1.20;;
61685;SDS011;47592;45.904;8.978;2024-03-17T07:54:27;3.60;;;1.08;;
61685;SDS011;47592;45.904;8.978;2024-03-17T07:56:53;4.35;;;1.30;;
61685;SDS011;47592;45.904;8.978;2024-03-17T07:59:21;3.97;;;1.20;;
61685;SDS011;47592;45.904;8.978;2024-03-17T08:01:46;3.78;;;1.20;;
61685;SDS011;47592;45.904;8.978;2024-03-17T08:04:12;3.47;;;1.20;;
61685;SDS011;47592;45.904;8.978;2024-03-17T08:06:40;4.20;;;1.40;;
61685;SDS011;47592;45.904;8.978;2024-03-17T08:09:10;3.50;;;1.20;;
61685;SDS011;47592;45.904;8.978;2024-03-17T08:11:37;3.35;;;1.15;;
61685;SDS011;47592;45.904;8.978;2024-03-17T08:14:11;3.75;;;1.30;;
61685;SDS011;47592;45.904;8.978;2024-03-17T08:16:40;4.85;;;1.63;;
61685;SDS011;47592;45.904;8.978;2024-03-17T08:19:06;3.70;;;1.42;;
61685;SDS011;47592;45.904;8.978;2024-03-17T08:21:34;4.18;;;1.40;;
61685;SDS011;47592;45.904;8.978;2024-03-17T08:24:01;3.85;;;1.30;;
61685;SDS011;47592;45.904;8.978;2024-03-17T08:26:27;3.28;;;1.20;;
61685;SDS011;47592;45.904;8.978;2024-03-17T08:28:53;3.72;;;1.20;;
61685;SDS011;47592;45.904;8.978;2024-03-17T08:31:18;3.03;;;0.98;;
61685;SDS011;47592;45.904;8.978;2024-03-17T08:33:44;4.82;;;1.30;;
61685;SDS011;47592;45.904;8.978;2024-03-17T08:36:09;4.35;;;1.30;;
61685;SDS011;47592;45.904;8.978;2024-03-17T08:38:35;3.20;;;1.20;;
61685;SDS011;47592;45.904;8.978;2024-03-17T08:41:05;3.80;;;1.20;;
61685;SDS011;47592;45.904;8.978;2024-03-17T08:43:31;3.85;;;1.25;;
61685;SDS011;47592;45.904;8.978;2024-03-17T08:46:02;3.60;;;1.10;;
61685;SDS011;47592;45.904;8.978;2024-03-17T08:48:30;4.28;;;1.50;;
61685;SDS011;47592;45.904;8.978;2024-03-17T08:50:59;4.10;;;1.30;;
61685;SDS011;47592;45.904;8.978;2024-03-17T08:53:26;6.38;;;2.58;;
61685;SDS011;47592;45.904;8.978;2024-03-17T08:55:56;6.60;;;2.05;;
61685;SDS011;47592;45.904;8.978;2024-03-17T08:58:26;5.20;;;1.55;;
61685;SDS011;47592;45.904;8.978;2024-03-17T09:00:52;5.25;;;1.60;;
61685;SDS011;47592;45.904;8.978;2024-03-17T09:03:18;3.70;;;1.02;;
61685;SDS011;47592;45.904;8.978;2024-03-17T09:05:46;3.88;;;1.38;;
61685;SDS011;47592;45.904;8.978;2024-03-17T09:10:42;3.72;;;1.30;;
61685;SDS011;47592;45.904;8.978;2024-03-17T09:13:15;6.25;;;1.27;;
61685;SDS011;47592;45.904;8.978;2024-03-17T09:15:53;5.57;;;1.90;;
61685;SDS011;47592;45.904;8.978;2024-03-17T09:18:30;5.95;;;2.20;;
61685;SDS011;47592;45.904;8.978;2024-03-17T09:21:05;4.22;;;1.30;;
61685;SDS011;47592;45.904;8.978;2024-03-17T09:23:35;4.05;;;1.10;;
61685;SDS011;47592;45.904;8.978;2024-03-17T09:26:04;3.67;;;1.08;;
61685;SDS011;47592;45.904;8.978;2024-03-17T09:28:36;2.92;;;0.90;;
61685;SDS011;47592;45.904;8.978;2024-03-17T09:31:04;3.03;;;1.10;;
61685;SDS011;47592;45.904;8.978;2024-03-17T09:33:32;4.10;;;0.90;;
61685;SDS011;47592;45.904;8.978;2024-03-17T09:36:02;2.97;;;0.77;;
61685;SDS011;47592;45.904;8.978;2024-03-17T09:38:29;3.33;;;0.85;;
61685;SDS011;47592;45.904;8.978;2024-03-17T09:40:57;4.50;;;1.20;;
61685;SDS011;47592;45.904;8.978;2024-03-17T09:43:26;2.65;;;0.90;;
61685;SDS011;47592;45.904;8.978;2024-03-17T09:45:52;2.85;;;0.80;;
61685;SDS011;47592;45.904;8.978;2024-03-17T09:50:52;2.45;;;0.80;;
61685;SDS011;47592;45.904;8.978;2024-03-17T09:53:18;2.53;;;0.75;;
61685;SDS011;47592;45.904;8.978;2024-03-17T09:55:48;3.35;;;0.90;;
61685;SDS011;47592;45.904;8.978;2024-03-17T09:58:15;2.17;;;0.73;;
61685;SDS011;47592;45.904;8.978;2024-03-17T10:00:42;2.78;;;0.70;;
61685;SDS011;47592;45.904;8.978;2024-03-17T10:03:07;2.80;;;0.90;;
61685;SDS011;47592;45.904;8.978;2024-03-17T10:05:33;2.05;;;0.77;;
61685;SDS011;47592;45.904;8.978;2024-03-17T10:08:00;3.15;;;0.88;;
61685;SDS011;47592;45.904;8.978;2024-03-17T10:10:27;4.75;;;0.88;;
61685;SDS011;47592;45.904;8.978;2024-03-17T10:12:52;3.38;;;1.00;;
61685;SDS011;47592;45.904;8.978;2024-03-17T10:15:18;3.60;;;1.00;;
61685;SDS011;47592;45.904;8.978;2024-03-17T10:17:48;3.25;;;0.90;;
61685;SDS011;47592;45.904;8.978;2024-03-17T10:20:15;3.40;;;0.95;;
61685;SDS011;47592;45.904;8.978;2024-03-17T10:22:57;4.35;;;1.40;;
61685;SDS011;47592;45.904;8.978;2024-03-17T10:25:29;3.83;;;1.48;;
61685;SDS011;47592;45.904;8.978;2024-03-17T10:27:58;3.58;;;1.00;;
61685;SDS011;47592;45.904;8.978;2024-03-17T10:30:24;3.53;;;1.10;;
61685;SDS011;47592;45.904;8.978;2024-03-17T10:35:30;4.78;;;1.30;;
61685;SDS011;47592;45.904;8.978;2024-03-17T10:40:25;4.38;;;1.67;;
61685;SDS011;47592;45.904;8.978;2024-03-17T10:42:51;4.70;;;1.65;;
61685;SDS011;47592;45.904;8.978;2024-03-17T10:45:19;4.72;;;1.30;;
61685;SDS011;47592;45.904;8.978;2024-03-17T10:47:47;3.25;;;1.10;;
61685;SDS011;47592;45.904;8.978;2024-03-17T10:52:44;4.15;;;1.20;;
61685;SDS011;47592;45.904;8.978;2024-03-17T10:55:11;3.50;;;1.38;;
61685;SDS011;47592;45.904;8.978;2024-03-17T10:57:48;4.63;;;1.48;;
61685;SDS011;47592;45.904;8.978;2024-03-17T11:00:17;3.97;;;1.23;;
61685;SDS011;47592;45.904;8.978;2024-03-17T11:02:47;4.25;;;1.40;;
61685;SDS011;47592;45.904;8.978;2024-03-17T11:05:26;4.43;;;1.60;;
61685;SDS011;47592;45.904;8.978;2024-03-17T11:07:58;4.40;;;1.52;;
61685;SDS011;47592;45.904;8.978;2024-03-17T11:10:30;5.05;;;1.50;;
61685;SDS011;47592;45.904;8.978;2024-03-17T11:17:50;4.25;;;1.63;;
61685;SDS011;47592;45.904;8.978;2024-03-17T11:20:26;3.88;;;1.45;;
61685;SDS011;47592;45.904;8.978;2024-03-17T11:22:54;3.53;;;1.17;;
61685;SDS011;47592;45.904;8.978;2024-03-17T11:27:52;4.38;;;1.30;;
61685;SDS011;47592;45.904;8.978;2024-03-17T11:39:05;3.28;;;1.13;;
61685;SDS011;47592;45.904;8.978;2024-03-17T11:41:40;3.67;;;1.33;;
61685;SDS011;47592;45.904;8.978;2024-03-17T11:44:16;4.38;;;1.40;;
61685;SDS011;47592;45.904;8.978;2024-03-17T11:51:54;4.53;;;1.30;;
61685;SDS011;47592;45.904;8.978;2024-03-17T11:54:30;4.65;;;1.30;;
61685;SDS011;47592;45.904;8.978;2024-03-17T11:57:01;3.90;;;1.38;;
61685;SDS011;47592;45.904;8.978;2024-03-17T11:59:29;3.92;;;1.20;;
61685;SDS011;47592;45.904;8.978;2024-03-17T12:01:55;3.85;;;1.10;;
61685;SDS011;47592;45.904;8.978;2024-03-17T12:04:23;3.38;;;1.20;;
61685;SDS011;47592;45.904;8.978;2024-03-17T12:06:52;4.05;;;1.38;;
61685;SDS011;47592;45.904;8.978;2024-03-17T12:12:01;3.50;;;1.00;;
61685;SDS011;47592;45.904;8.978;2024-03-17T12:14:29;3.38;;;1.10;;
61685;SDS011;47592;45.904;8.978;2024-03-17T12:16:55;3.90;;;1.20;;
61685;SDS011;47592;45.904;8.978;2024-03-17T12:19:22;3.42;;;1.30;;
61685;SDS011;47592;45.904;8.978;2024-03-17T12:21:49;6.25;;;1.30;;
61685;SDS011;47592;45.904;8.978;2024-03-17T12:24:21;3.80;;;1.42;;
61685;SDS011;47592;45.904;8.978;2024-03-17T12:26:51;3.47;;;1.15;;
61685;SDS011;47592;45.904;8.978;2024-03-17T12:31:58;4.03;;;1.45;;
61685;SDS011;47592;45.904;8.978;2024-03-17T12:34:26;4.82;;;1.60;;
61685;SDS011;47592;45.904;8.978;2024-03-17T12:36:53;4.07;;;1.50;;
61685;SDS011;47592;45.904;8.978;2024-03-17T12:39:27;4.70;;;1.48;;
61685;SDS011;47592;45.904;8.978;2024-03-17T12:44:38;4.28;;;1.55;;
61685;SDS011;47592;45.904;8.978;2024-03-17T12:47:16;4.72;;;1.45;;
61685;SDS011;47592;45.904;8.978;2024-03-17T12:49:52;3.75;;;1.35;;
61685;SDS011;47592;45.904;8.978;2024-03-17T12:54:57;4.90;;;1.60;;
61685;SDS011;47592;45.904;8.978;2024-03-17T12:57:48;5.25;;;1.58;;
61685;SDS011;47592;45.904;8.978;2024-03-17T13:00:32;4.53;;;1.80;;
61685;SDS011;47592;45.904;8.978;2024-03-17T13:03:02;5.57;;;2.00;;
61685;SDS011;47592;45.904;8.978;2024-03-17T13:05:31;5.53;;;2.10;;
61685;SDS011;47592;45.904;8.978;2024-03-17T13:07:57;5.18;;;1.90;;
61685;SDS011;47592;45.904;8.978;2024-03-17T13:10:23;6.40;;;2.13;;
61685;SDS011;47592;45.904;8.978;2024-03-17T13:12:58;5.43;;;2.17;;
61685;SDS011;47592;45.904;8.978;2024-03-17T13:15:37;4.63;;;2.08;;
61685;SDS011;47592;45.904;8.978;2024-03-17T13:18:02;5.07;;;2.25;;
61685;SDS011;47592;45.904;8.978;2024-03-17T13:20:31;4.90;;;2.20;;
61685;SDS011;47592;45.904;8.978;2024-03-17T13:23:00;4.95;;;2.30;;
61685;SDS011;47592;45.904;8.978;2024-03-17T13:25:26;5.45;;;2.20;;
61685;SDS011;47592;45.904;8.978;2024-03-17T13:27:54;5.93;;;2.30;;
61685;SDS011;47592;45.904;8.978;2024-03-17T13:30:21;5.32;;;2.08;;
61685;SDS011;47592;45.904;8.978;2024-03-17T13:32:53;5.18;;;2.30;;
61685;SDS011;47592;45.904;8.978;2024-03-17T13:35:24;4.70;;;1.90;;
61685;SDS011;47592;45.904;8.978;2024-03-17T13:37:51;4.35;;;1.80;;
61685;SDS011;47592;45.904;8.978;2024-03-17T13:40:18;5.20;;;1.80;;
61685;SDS011;47592;45.904;8.978;2024-03-17T13:42:49;4.80;;;2.20;;
61685;SDS011;47592;45.904;8.978;2024-03-17T13:45:17;4.38;;;2.13;;
61685;SDS011;47592;45.904;8.978;2024-03-17T13:47:49;5.47;;;2.50;;
61685;SDS011;47592;45.904;8.978;2024-03-17T13:50:18;5.03;;;2.20;;
61685;SDS011;47592;45.904;8.978;2024-03-17T13:52:47;4.30;;;2.00;;
61685;SDS011;47592;45.904;8.978;2024-03-17T13:57:44;4.30;;;2.00;;
61685;SDS011;47592;45.904;8.978;2024-03-17T14:00:10;4.68;;;1.77;;
61685;SDS011;47592;45.904;8.978;2024-03-17T14:02:40;4.00;;;1.67;;
61685;SDS011;47592;45.904;8.978;2024-03-17T14:05:13;4.77;;;1.90;;
61685;SDS011;47592;45.904;8.978;2024-03-17T14:07:41;5.55;;;1.60;;
61685;SDS011;47592;45.904;8.978;2024-03-17T14:10:07;4.38;;;1.90;;
61685;SDS011;47592;45.904;8.978;2024-03-17T14:12:34;5.03;;;1.70;;
61685;SDS011;47592;45.904;8.978;2024-03-17T14:15:04;4.55;;;1.70;;
61685;SDS011;47592;45.904;8.978;2024-03-17T14:17:36;4.82;;;1.73;;
61685;SDS011;47592;45.904;8.978;2024-03-17T14:20:04;4.53;;;1.80;;
61685;SDS011;47592;45.904;8.978;2024-03-17T14:22:37;7.60;;;2.15;;
61685;SDS011;47592;45.904;8.978;2024-03-17T14:25:06;4.72;;;2.08;;
61685;SDS011;47592;45.904;8.978;2024-03-17T14:27:32;4.68;;;2.03;;
61685;SDS011;47592;45.904;8.978;2024-03-17T14:29:57;4.93;;;2.22;;
61685;SDS011;47592;45.904;8.978;2024-03-17T14:32:23;4.43;;;1.83;;
61685;SDS011;47592;45.904;8.978;2024-03-17T14:34:48;4.60;;;1.77;;
61685;SDS011;47592;45.904;8.978;2024-03-17T14:37:14;5.88;;;1.80;;
61685;SDS011;47592;45.904;8.978;2024-03-17T14:39:42;4.70;;;1.80;;
61685;SDS011;47592;45.904;8.978;2024-03-17T14:42:09;4.72;;;2.15;;
61685;SDS011;47592;45.904;8.978;2024-03-17T14:44:35;6.20;;;2.15;;
61685;SDS011;47592;45.904;8.978;2024-03-17T14:47:03;6.38;;;1.98;;
61685;SDS011;47592;45.904;8.978;2024-03-17T14:49:32;4.45;;;1.80;;
61685;SDS011;47592;45.904;8.978;2024-03-17T14:51:58;5.00;;;1.67;;
61685;SDS011;47592;45.904;8.978;2024-03-17T14:54:24;5.05;;;1.77;;
61685;SDS011;47592;45.904;8.978;2024-03-17T14:56:50;5.60;;;1.67;;
61685;SDS011;47592;45.904;8.978;2024-03-17T14:59:16;5.88;;;1.90;;
61685;SDS011;47592;45.904;8.978;2024-03-17T15:01:44;5.28;;;2.03;;
61685;SDS011;47592;45.904;8.978;2024-03-17T15:04:12;5.97;;;2.43;;
61685;SDS011;47592;45.904;8.978;2024-03-17T15:06:38;6.13;;;2.25;;
61685;SDS011;47592;45.904;8.978;2024-03-17T15:09:05;5.70;;;2.40;;
61685;SDS011;47592;45.904;8.978;2024-03-17T15:11:30;6.70;;;2.60;;
61685;SDS011;47592;45.904;8.978;2024-03-17T15:13:58;5.50;;;2.60;;
61685;SDS011;47592;45.904;8.978;2024-03-17T15:16:23;7.82;;;3.30;;
61685;SDS011;47592;45.904;8.978;2024-03-17T15:18:49;7.60;;;4.32;;
61685;SDS011;47592;45.904;8.978;2024-03-17T15:21:15;7.72;;;4.75;;
61685;SDS011;47592;45.904;8.978;2024-03-17T15:23:41;6.82;;;4.03;;
61685;SDS011;47592;45.904;8.978;2024-03-17T15:26:06;8.30;;;3.70;;
61685;SDS011;47592;45.904;8.978;2024-03-17T15:28:35;6.90;;;3.60;;
61685;SDS011;47592;45.904;8.978;2024-03-17T15:31:04;8.00;;;4.38;;
61685;SDS011;47592;45.904;8.978;2024-03-17T15:33:36;9.23;;;4.63;;
61685;SDS011;47592;45.904;8.978;2024-03-17T15:36:09;8.05;;;4.35;;
61685;SDS011;47592;45.904;8.978;2024-03-17T15:38:35;8.37;;;4.10;;
61685;SDS011;47592;45.904;8.978;2024-03-17T15:41:04;8.00;;;4.63;;